Impacts METAR Board INFO
IDs:

KPIT - Pittsburgh Intl, PA, US

Updated at: 0946 UTC 19 Jan 2018
Potential Impact None Slight Moderate High
Time18/21Z 18/22Z 18/23Z 19/00Z 19/01Z 19/02Z 19/03Z 19/04Z 19/05Z 19/06Z 19/07Z 19/08Z 19/09Z
VIS10 10 10 10 10 10 10 10 10 10 10 10 10
CIG-- -- -- -- -- -- -- -- -- -- -- -- --
CoverFEWFEWCLRCLRCLRCLRCLRCLRCLRCLRCLRCLRCLR
FltCatVFRVFRVFRVFRVFRVFRVFRVFRVFRVFRVFRVFRVFR
WX--------------------------
WDir250230210230230230210220230220220220230
WSpd8 11 5 8 9 9 11 8 11 10 8 8 9
WGst17 -- -- -- -- -- -- 16 -- -- -- -- --
Raw hourly METARs
KPIT 182051Z 25008G17KT 10SM FEW250 M03/M12 A3012 RMK AO2 SLP227 T10281122 56010
KPIT 182151Z 23011KT 10SM FEW250 M03/M12 A3011 RMK AO2 SLP225 T10331122
KPIT 182251Z 21005KT 10SM CLR M04/M12 A3011 RMK AO2 SLP225 T10391122
KPIT 182351Z 23008KT 10SM CLR M04/M12 A3012 RMK AO2 SLP228 T10391122 11028 21061 53001
KPIT 190051Z 23009KT 10SM CLR M04/M12 A3013 RMK AO2 SLP232 T10441122
KPIT 190151Z 23009KT 10SM CLR M04/M12 A3013 RMK AO2 SLP231 T10441117
KPIT 190251Z 21011KT 10SM CLR M04/M12 A3012 RMK AO2 SLP227 T10441122 50000
KPIT 190351Z 22008G16KT 10SM CLR M04/M12 A3011 RMK AO2 SLP223 T10391122
KPIT 190451Z 23011KT 10SM CLR M04/M12 A3010 RMK AO2 SLP219 T10391122 410281139
KPIT 190551Z 22010KT 10SM CLR M04/M12 A3008 RMK AO2 SLP210 T10441122 11033 21044 58014
KPIT 190651Z 22008KT 10SM CLR M04/M12 A3008 RMK AO2 SLP209 T10441122
KPIT 190751Z 22008KT 10SM CLR M05/M12 A3008 RMK AO2 SLP211 T10501122
KPIT 190851Z 23009KT 10SM CLR M05/M12 A3009 RMK AO2 SLP213 T10501122 53004